createdAt,value
2023-07-14T00:00:57.185Z,0.00
2023-07-14T00:01:57.240Z,0.00
2023-07-14T00:02:57.212Z,0.00
2023-07-14T00:03:57.202Z,0.00
2023-07-14T00:04:57.140Z,0.00
2023-07-14T00:05:57.132Z,0.00
2023-07-14T00:06:57.132Z,0.00
2023-07-14T00:07:57.109Z,0.00
2023-07-14T00:08:57.149Z,0.00
2023-07-14T00:09:57.107Z,0.00
2023-07-14T00:10:57.068Z,0.00
2023-07-14T00:11:57.061Z,0.00
2023-07-14T00:12:57.059Z,0.00
2023-07-14T00:13:57.064Z,0.00
2023-07-14T00:14:57.028Z,0.00
2023-07-14T00:15:57.036Z,0.00
2023-07-14T00:16:57.218Z,0.00
2023-07-14T00:17:57.031Z,0.00
2023-07-14T00:18:57.041Z,0.00
2023-07-14T00:19:56.974Z,0.00
2023-07-14T00:20:56.961Z,0.00
2023-07-14T00:21:56.953Z,0.00
2023-07-14T00:22:57.038Z,0.00
2023-07-14T00:23:56.942Z,0.00
2023-07-14T00:24:56.910Z,0.00
2023-07-14T00:25:56.946Z,0.00
2023-07-14T00:26:56.947Z,0.00
2023-07-14T00:27:56.893Z,0.00
2023-07-14T00:28:56.932Z,0.00
2023-07-14T00:29:56.863Z,0.00
2023-07-14T00:30:56.846Z,0.00
2023-07-14T00:31:56.868Z,0.00
2023-07-14T00:32:56.881Z,0.00
2023-07-14T00:33:56.842Z,0.00
2023-07-14T00:34:56.830Z,0.00
2023-07-14T00:35:56.793Z,0.00
2023-07-14T00:36:56.784Z,0.00
2023-07-14T00:37:56.776Z,0.00
2023-07-14T00:38:56.813Z,0.00
2023-07-14T00:39:56.746Z,0.00
2023-07-14T00:40:56.752Z,0.00
2023-07-14T00:41:56.760Z,0.00
2023-07-14T00:42:56.715Z,0.00
2023-07-14T00:43:56.740Z,0.00
2023-07-14T00:44:56.733Z,0.00
2023-07-14T00:45:56.739Z,0.00
2023-07-14T00:46:56.674Z,0.00
2023-07-14T00:47:56.696Z,0.00
2023-07-14T00:48:56.665Z,0.00
2023-07-14T00:49:56.640Z,0.00
2023-07-14T00:50:56.675Z,0.00
2023-07-14T00:51:56.606Z,0.00
2023-07-14T00:52:56.595Z,0.00
2023-07-14T00:53:56.619Z,0.00
2023-07-14T00:54:56.587Z,0.00
2023-07-14T00:55:56.594Z,0.00
2023-07-14T00:56:56.560Z,0.00
2023-07-14T00:57:56.550Z,0.00
2023-07-14T00:58:56.534Z,0.00
2023-07-14T00:59:56.559Z,0.00
2023-07-14T01:00:56.518Z,0.00
2023-07-14T01:01:56.554Z,0.00
2023-07-14T01:02:56.545Z,0.00
2023-07-14T01:03:56.908Z,0.00
2023-07-14T01:04:56.471Z,0.00
2023-07-14T01:05:56.467Z,0.00
2023-07-14T01:06:56.461Z,0.00
2023-07-14T01:07:56.480Z,0.00
2023-07-14T01:08:56.439Z,0.00
2023-07-14T01:09:56.406Z,0.00
2023-07-14T01:10:56.414Z,0.00
2023-07-14T01:11:56.383Z,0.00
2023-07-14T01:12:56.380Z,0.00
2023-07-14T01:13:56.403Z,0.00
2023-07-14T01:14:56.344Z,0.00
2023-07-14T01:15:56.426Z,0.00
2023-07-14T01:16:56.328Z,0.00
2023-07-14T01:17:56.345Z,0.00
2023-07-14T01:18:56.310Z,0.00
2023-07-14T01:19:56.357Z,0.00
2023-07-14T01:20:56.307Z,0.00
2023-07-14T01:21:56.263Z,0.00
2023-07-14T01:22:56.338Z,0.00
2023-07-14T01:23:56.262Z,0.00
2023-07-14T01:24:56.226Z,0.00
2023-07-14T01:25:56.239Z,0.00
2023-07-14T01:26:56.211Z,0.00
2023-07-14T01:27:56.209Z,0.00
2023-07-14T01:28:56.202Z,0.00
2023-07-14T01:29:56.171Z,0.00
2023-07-14T01:30:56.197Z,0.00
2023-07-14T01:31:56.179Z,0.00
2023-07-14T01:32:56.184Z,0.00
2023-07-14T01:33:56.182Z,0.00
2023-07-14T01:34:56.133Z,0.00
2023-07-14T01:35:56.127Z,0.00
2023-07-14T01:36:56.106Z,0.00
2023-07-14T01:37:56.081Z,0.00
2023-07-14T01:38:56.109Z,0.00
2023-07-14T01:39:56.067Z,0.00
2023-07-14T01:40:56.046Z,0.00
2023-07-14T01:41:56.041Z,0.00
2023-07-14T01:42:56.033Z,0.00
2023-07-14T01:43:56.032Z,0.00
2023-07-14T01:44:55.996Z,0.00
2023-07-14T01:45:56.002Z,0.00
2023-07-14T01:46:56.053Z,0.00
2023-07-14T01:47:56.077Z,0.00
2023-07-14T01:48:55.967Z,0.00
2023-07-14T01:49:55.946Z,0.00
2023-07-14T01:50:55.935Z,0.00
2023-07-14T01:51:55.940Z,0.00
2023-07-14T01:52:55.909Z,0.00
2023-07-14T01:53:55.910Z,0.00
2023-07-14T01:54:55.911Z,0.00
2023-07-14T01:55:55.885Z,0.00
2023-07-14T01:56:55.911Z,0.00
2023-07-14T01:57:55.880Z,0.00
2023-07-14T01:58:55.862Z,0.00
2023-07-14T01:59:55.906Z,0.00
2023-07-14T02:00:55.850Z,0.00
2023-07-14T02:01:55.912Z,0.00
2023-07-14T02:02:55.928Z,0.00
2023-07-14T02:03:55.784Z,0.00
2023-07-14T02:04:55.788Z,0.00
2023-07-14T02:05:55.774Z,0.00
2023-07-14T02:06:55.771Z,0.00
2023-07-14T02:07:55.742Z,0.00
2023-07-14T02:08:55.749Z,0.00
2023-07-14T02:09:55.719Z,0.00
2023-07-14T02:10:55.726Z,0.00
2023-07-14T02:11:55.689Z,0.00
2023-07-14T02:12:55.678Z,0.00
2023-07-14T02:13:55.700Z,0.00
2023-07-14T02:14:55.695Z,0.00
2023-07-14T02:15:55.685Z,0.00
2023-07-14T02:16:55.704Z,0.00
2023-07-14T02:17:55.690Z,0.00
2023-07-14T02:18:55.620Z,0.00
2023-07-14T02:19:55.605Z,0.00
2023-07-14T02:20:55.610Z,0.00
2023-07-14T02:21:55.594Z,0.00
2023-07-14T02:22:55.730Z,0.00
2023-07-14T02:23:55.575Z,0.00
2023-07-14T02:24:55.537Z,0.00
2023-07-14T02:25:55.542Z,0.00
2023-07-14T02:26:55.557Z,0.00
2023-07-14T02:27:55.510Z,0.00
2023-07-14T02:28:55.509Z,0.00
2023-07-14T02:29:55.493Z,0.00
2023-07-14T02:30:55.508Z,0.00
2023-07-14T02:31:55.485Z,0.00
2023-07-14T02:32:55.485Z,0.00
2023-07-14T02:33:55.480Z,0.00
2023-07-14T02:34:55.433Z,0.00
2023-07-14T02:35:55.418Z,0.00
2023-07-14T02:36:55.416Z,0.00
2023-07-14T02:37:55.394Z,0.00
2023-07-14T02:38:55.417Z,0.00
2023-07-14T02:39:55.412Z,0.00
2023-07-14T02:40:55.369Z,0.00
2023-07-14T02:41:55.351Z,0.00
2023-07-14T02:42:55.362Z,0.00
2023-07-14T02:43:55.437Z,0.00
2023-07-14T02:44:55.320Z,0.00
2023-07-14T02:45:55.317Z,0.00
2023-07-14T02:46:55.360Z,0.00
2023-07-14T02:47:55.340Z,0.00
2023-07-14T02:48:55.291Z,0.00
2023-07-14T02:49:55.279Z,0.00
2023-07-14T02:50:55.248Z,0.00
2023-07-14T02:51:55.248Z,0.00
2023-07-14T02:52:55.254Z,0.00
2023-07-14T02:53:55.269Z,0.00
2023-07-14T02:54:55.217Z,0.00
2023-07-14T02:55:55.194Z,0.00
2023-07-14T02:56:55.197Z,0.00
2023-07-14T02:57:55.215Z,0.00
2023-07-14T02:58:55.270Z,0.00
2023-07-14T02:59:55.149Z,0.00
2023-07-14T03:00:55.175Z,0.00
2023-07-14T03:01:55.236Z,4.00
2023-07-14T03:02:55.283Z,4.00
2023-07-14T03:03:55.154Z,4.00
2023-07-14T03:04:55.111Z,4.00
2023-07-14T03:05:55.086Z,0.00
2023-07-14T03:06:55.074Z,4.00
2023-07-14T03:07:55.095Z,4.00
2023-07-14T03:08:55.079Z,4.00
2023-07-14T03:09:55.045Z,4.00
2023-07-14T03:10:55.040Z,4.00
2023-07-14T03:11:55.024Z,8.00
2023-07-14T03:12:55.018Z,4.00
2023-07-14T03:13:55.003Z,8.00
2023-07-14T03:14:55.000Z,8.00
2023-07-14T03:15:55.005Z,12.00
2023-07-14T03:16:55.027Z,8.00
2023-07-14T03:17:54.985Z,12.00
2023-07-14T03:18:55.000Z,12.00
2023-07-14T03:19:54.928Z,12.00
2023-07-14T03:20:54.912Z,12.00
2023-07-14T03:21:54.902Z,20.00
2023-07-14T03:22:54.982Z,20.00
2023-07-14T03:23:54.905Z,20.00
2023-07-14T03:24:54.882Z,24.00
2023-07-14T03:25:54.860Z,28.00
2023-07-14T03:26:54.853Z,28.00
2023-07-14T03:27:54.858Z,32.00
2023-07-14T03:28:54.857Z,32.00
2023-07-14T03:29:54.815Z,36.00
2023-07-14T03:30:54.837Z,36.00
2023-07-14T03:31:54.841Z,40.00
2023-07-14T03:32:54.815Z,48.00
2023-07-14T03:33:54.781Z,52.00
2023-07-14T03:34:54.771Z,52.00
2023-07-14T03:35:54.752Z,60.00
2023-07-14T03:36:54.748Z,64.00
2023-07-14T03:37:54.722Z,68.00
2023-07-14T03:38:54.721Z,72.00
2023-07-14T03:39:54.709Z,80.00
2023-07-14T03:40:54.690Z,88.00
2023-07-14T03:41:54.689Z,92.00
2023-07-14T03:42:54.676Z,96.00
2023-07-14T03:43:54.666Z,104.00
2023-07-14T03:44:54.656Z,112.00
2023-07-14T03:45:54.653Z,116.00
2023-07-14T03:46:54.639Z,120.00
2023-07-14T03:47:54.631Z,128.00
2023-07-14T03:48:54.648Z,136.00
2023-07-14T03:49:54.580Z,140.00
2023-07-14T03:50:54.581Z,148.00
2023-07-14T03:51:54.563Z,156.00
2023-07-14T03:52:54.552Z,164.00
2023-07-14T03:53:54.556Z,172.00
2023-07-14T03:54:54.533Z,180.00
2023-07-14T03:55:54.523Z,188.00
2023-07-14T03:56:54.534Z,196.00
2023-07-14T03:58:55.493Z,212.00
2023-07-14T03:59:54.478Z,220.00
2023-07-14T04:00:54.459Z,232.00
2023-07-14T04:01:54.493Z,244.00
2023-07-14T04:02:54.539Z,256.00
2023-07-14T04:03:54.489Z,272.00
2023-07-14T04:04:54.415Z,284.00
2023-07-14T04:05:54.406Z,300.00
2023-07-14T04:06:54.394Z,312.00
2023-07-14T04:07:54.399Z,320.00
2023-07-14T04:08:54.379Z,328.00
2023-07-14T04:09:54.357Z,336.00
2023-07-14T04:10:54.355Z,340.00
2023-07-14T04:11:54.336Z,344.00
2023-07-14T04:12:54.366Z,352.00
2023-07-14T04:13:54.320Z,356.00
2023-07-14T04:14:54.316Z,364.00
2023-07-14T04:15:54.321Z,372.00
2023-07-14T04:16:54.467Z,380.00
2023-07-14T04:17:54.323Z,400.00
2023-07-14T04:18:54.325Z,416.00
2023-07-14T04:19:54.249Z,440.00
2023-07-14T04:20:54.233Z,460.00
2023-07-14T04:21:54.219Z,480.00
2023-07-14T04:22:54.377Z,504.00
2023-07-14T04:23:54.302Z,532.00
2023-07-14T04:24:54.205Z,560.00
2023-07-14T04:25:54.186Z,592.00
2023-07-14T04:26:54.165Z,628.00
2023-07-14T04:27:54.191Z,656.00
2023-07-14T04:28:54.171Z,680.00
2023-07-14T04:29:54.173Z,700.00
2023-07-14T04:30:54.142Z,720.00
2023-07-14T04:31:54.212Z,752.00
2023-07-14T04:32:54.189Z,800.00
2023-07-14T04:33:54.105Z,816.00
2023-07-14T04:34:54.110Z,836.00
2023-07-14T04:35:54.070Z,852.00
2023-07-14T04:36:54.059Z,876.00
2023-07-14T04:37:54.049Z,908.00
2023-07-14T04:38:54.027Z,928.00
2023-07-14T04:39:54.012Z,952.00
2023-07-14T04:40:54.002Z,968.00
2023-07-14T04:41:53.998Z,980.00
2023-07-14T04:42:54.015Z,996.00
2023-07-14T04:43:53.983Z,1008.00
2023-07-14T04:44:53.972Z,1024.00
2023-07-14T04:45:53.992Z,1028.00
2023-07-14T04:46:53.952Z,1052.00
2023-07-14T04:47:53.937Z,1088.00
2023-07-14T04:48:53.933Z,1100.00
2023-07-14T04:49:53.912Z,1108.00
2023-07-14T04:50:53.915Z,1128.00
2023-07-14T04:51:53.890Z,1148.00
2023-07-14T04:52:53.890Z,1164.00
2023-07-14T04:53:53.874Z,1184.00
2023-07-14T04:54:53.844Z,1204.00
2023-07-14T04:55:53.830Z,1220.00
2023-07-14T04:56:53.825Z,1240.00
2023-07-14T04:57:53.812Z,1264.00
2023-07-14T04:58:53.821Z,1276.00
2023-07-14T04:59:53.787Z,1280.00
2023-07-14T05:00:53.900Z,1288.00
2023-07-14T05:01:53.779Z,1304.00
2023-07-14T05:02:53.829Z,1324.00
2023-07-14T05:03:53.796Z,1312.00
2023-07-14T05:05:01.154Z,1340.00
2023-07-14T05:05:54.728Z,1372.00
2023-07-14T05:06:53.747Z,1372.00
2023-07-14T05:07:53.698Z,1352.00
2023-07-14T05:08:53.708Z,1328.00
2023-07-14T05:09:53.694Z,1332.00
2023-07-14T05:10:53.666Z,1336.00
2023-07-14T05:11:53.681Z,1368.00
2023-07-14T05:12:53.679Z,1408.00
2023-07-14T05:13:53.644Z,1440.00
2023-07-14T05:14:53.621Z,1468.00
2023-07-14T05:15:53.689Z,1460.00
2023-07-14T05:16:53.601Z,1524.00
2023-07-14T05:17:53.639Z,1568.00
2023-07-14T05:18:53.589Z,1612.00
2023-07-14T05:19:53.561Z,1660.00
2023-07-14T05:20:53.570Z,1696.00
2023-07-14T05:21:53.543Z,1720.00
2023-07-14T05:22:53.606Z,1756.00
2023-07-14T05:23:53.536Z,1792.00
2023-07-14T05:24:53.516Z,1840.00
2023-07-14T05:25:53.500Z,1892.00
2023-07-14T05:26:53.498Z,1940.00
2023-07-14T05:27:53.510Z,2012.00
2023-07-14T05:28:53.501Z,2120.00
2023-07-14T05:29:53.450Z,2212.00
2023-07-14T05:30:53.478Z,2496.00
2023-07-14T05:31:53.445Z,2604.00
2023-07-14T05:32:53.519Z,2828.00
2023-07-14T05:33:53.436Z,3168.00
2023-07-14T05:34:53.408Z,3568.00
2023-07-14T05:35:53.394Z,3660.00
2023-07-14T05:36:53.379Z,3708.00
2023-07-14T05:37:53.366Z,3728.00
2023-07-14T05:38:53.393Z,3780.00
2023-07-14T05:39:53.334Z,3824.00
2023-07-14T05:40:58.319Z,3852.00
2023-07-14T05:41:54.319Z,3824.00
2023-07-14T05:42:53.308Z,3820.00
2023-07-14T05:43:53.418Z,3828.00
2023-07-14T05:44:53.279Z,3876.00
2023-07-14T05:45:53.294Z,3936.00
2023-07-14T05:46:53.291Z,3972.00
2023-07-14T05:47:53.291Z,4048.00
2023-07-14T05:48:53.257Z,4100.00
2023-07-14T05:49:53.238Z,4100.00
2023-07-14T05:50:53.218Z,3644.00
2023-07-14T05:51:53.205Z,4020.00
2023-07-14T05:52:53.193Z,4192.00
2023-07-14T05:53:53.199Z,4344.00
2023-07-14T05:54:53.196Z,4156.00
2023-07-14T05:55:53.186Z,4272.00
2023-07-14T05:56:53.151Z,4088.00
2023-07-14T05:57:53.148Z,4184.00
2023-07-14T05:58:53.149Z,4096.00
2023-07-14T05:59:53.109Z,4144.00
2023-07-14T06:00:53.137Z,4132.00
2023-07-14T06:01:53.089Z,4148.00
2023-07-14T06:02:53.117Z,4124.00
2023-07-14T06:03:53.128Z,4116.00
2023-07-14T06:04:53.089Z,4092.00
2023-07-14T06:05:53.042Z,4116.00
2023-07-14T06:06:53.038Z,4188.00
2023-07-14T06:07:53.014Z,4124.00
2023-07-14T06:08:53.038Z,4224.00
2023-07-14T06:09:52.992Z,4040.00
2023-07-14T06:10:53.115Z,4392.00
2023-07-14T06:11:52.972Z,4572.00
2023-07-14T06:12:52.960Z,4692.00
2023-07-14T06:13:52.986Z,4660.00
2023-07-14T06:14:52.944Z,4812.00
2023-07-14T06:15:52.924Z,5008.00
2023-07-14T06:16:52.955Z,5332.00
2023-07-14T06:17:52.962Z,5588.00
2023-07-14T06:18:52.914Z,5520.00
2023-07-14T06:19:52.898Z,5284.00
2023-07-14T06:20:52.892Z,5900.00
2023-07-14T06:21:52.855Z,6808.00
2023-07-14T06:22:52.973Z,6916.00
2023-07-14T06:23:52.847Z,6772.00
2023-07-14T06:24:52.827Z,5204.00
2023-07-14T06:25:52.831Z,6416.00
2023-07-14T06:26:52.912Z,7196.00
2023-07-14T06:27:52.800Z,6088.00
2023-07-14T06:28:52.780Z,5536.00
2023-07-14T06:29:52.768Z,4968.00
2023-07-14T06:30:52.801Z,5664.00
2023-07-14T06:31:52.764Z,7744.00
2023-07-14T06:32:52.820Z,8832.00
2023-07-14T06:33:52.720Z,9380.00
2023-07-14T06:34:52.712Z,9844.00
2023-07-14T06:35:52.707Z,9564.00
2023-07-14T06:36:52.721Z,9416.00
2023-07-14T06:37:52.691Z,8476.00
2023-07-14T06:38:52.674Z,7612.00
2023-07-14T06:39:52.668Z,7164.00
2023-07-14T06:40:52.657Z,6872.00
2023-07-14T06:41:52.671Z,6176.00
2023-07-14T06:42:52.673Z,6052.00
2023-07-14T06:43:52.633Z,6272.00
2023-07-14T06:44:52.615Z,6760.00
2023-07-14T06:45:52.592Z,5980.00
2023-07-14T06:46:52.626Z,6108.00
2023-07-14T06:47:52.649Z,6032.00
2023-07-14T06:48:52.587Z,6964.00
2023-07-14T06:49:52.618Z,8512.00
2023-07-14T06:50:52.541Z,9896.00
2023-07-14T06:51:52.524Z,10548.00
2023-07-14T06:52:52.540Z,10472.00
2023-07-14T06:53:52.499Z,11100.00
2023-07-14T06:54:52.508Z,11284.00
2023-07-14T06:55:52.482Z,10512.00
2023-07-14T06:56:52.468Z,9196.00
2023-07-14T06:57:52.497Z,8904.00
2023-07-14T06:58:52.496Z,10392.00
2023-07-14T06:59:52.438Z,9760.00
2023-07-14T07:00:52.423Z,9952.00
2023-07-14T07:01:52.457Z,10024.00
2023-07-14T07:02:54.386Z,9932.00
2023-07-14T07:03:55.408Z,8900.00
2023-07-14T07:04:52.380Z,9284.00
2023-07-14T07:05:52.521Z,8432.00
2023-07-14T07:06:52.373Z,9188.00
2023-07-14T07:07:52.362Z,12732.00
2023-07-14T07:08:52.347Z,15008.00
2023-07-14T07:09:52.341Z,21408.00
2023-07-14T07:10:52.307Z,30240.00
2023-07-14T07:11:52.294Z,31904.00
2023-07-14T07:12:52.305Z,31232.00
2023-07-14T07:13:52.275Z,21248.00
2023-07-14T07:14:52.347Z,26112.00
2023-07-14T07:15:53.867Z,50432.00
2023-07-14T07:16:52.262Z,58304.00
2023-07-14T07:17:52.276Z,58368.00
2023-07-14T07:18:52.218Z,56032.00
2023-07-14T07:19:52.242Z,56064.00
2023-07-14T07:20:54.428Z,57536.00
2023-07-14T07:21:52.188Z,55136.00
2023-07-14T07:22:52.274Z,53632.00
2023-07-14T07:23:52.244Z,49920.00
2023-07-14T07:24:52.188Z,49088.00
2023-07-14T07:25:52.151Z,45280.00
2023-07-14T07:26:52.153Z,38400.00
2023-07-14T07:27:52.217Z,42272.00
2023-07-14T07:28:52.122Z,41024.00
2023-07-14T07:29:52.135Z,34432.00
2023-07-14T07:30:52.161Z,38464.00
2023-07-14T07:31:53.480Z,39072.00
2023-07-14T07:32:52.099Z,36128.00
2023-07-14T07:33:52.054Z,32960.00
2023-07-14T07:34:52.094Z,36064.00
2023-07-14T07:35:52.047Z,29088.00
2023-07-14T07:36:52.048Z,30080.00
2023-07-14T07:37:52.958Z,32928.00
2023-07-14T07:38:52.003Z,23552.00
2023-07-14T07:39:51.996Z,28288.00
2023-07-14T07:40:51.977Z,27552.00
2023-07-14T07:41:51.970Z,20992.00
2023-07-14T07:42:52.050Z,22560.00
2023-07-14T07:43:51.959Z,26912.00
2023-07-14T07:44:51.958Z,27328.00
2023-07-14T07:45:51.978Z,22912.00
2023-07-14T07:46:51.973Z,12448.00
2023-07-14T07:47:51.908Z,20480.00
2023-07-14T07:48:51.917Z,24480.00
2023-07-14T07:49:51.913Z,31200.00
2023-07-14T07:50:51.954Z,31904.00
2023-07-14T07:51:51.875Z,38016.00
2023-07-14T07:52:51.850Z,45920.00
2023-07-14T07:53:51.838Z,42464.00
2023-07-14T07:54:51.850Z,51328.00
2023-07-14T07:55:51.824Z,50400.00
2023-07-14T07:56:51.807Z,44256.00
2023-07-14T07:57:51.794Z,45568.00
2023-07-14T07:58:51.796Z,40544.00
2023-07-14T07:59:51.801Z,32832.00
2023-07-14T08:00:51.760Z,36032.00
2023-07-14T08:01:51.818Z,26432.00
2023-07-14T08:02:51.809Z,24672.00
2023-07-14T08:03:51.910Z,20960.00
2023-07-14T08:04:51.748Z,18048.00
2023-07-14T08:05:51.754Z,18240.00
2023-07-14T08:06:51.717Z,12908.00
2023-07-14T08:07:51.714Z,13676.00
2023-07-14T08:08:51.687Z,14452.00
2023-07-14T08:09:51.693Z,12392.00
2023-07-14T08:10:51.689Z,12632.00
2023-07-14T08:11:51.679Z,12936.00
2023-07-14T08:12:51.636Z,14112.00
2023-07-14T08:13:51.626Z,15248.00
2023-07-14T08:14:51.635Z,21184.00
2023-07-14T08:15:52.741Z,16896.00
2023-07-14T08:16:51.716Z,19104.00
2023-07-14T08:17:51.592Z,18592.00
2023-07-14T08:18:51.591Z,22624.00
2023-07-14T08:19:51.575Z,13952.00
2023-07-14T08:20:51.549Z,14036.00
2023-07-14T08:21:51.574Z,12160.00
2023-07-14T08:22:51.576Z,11040.00
2023-07-14T08:23:51.514Z,11124.00
2023-07-14T08:24:51.512Z,13296.00
2023-07-14T08:25:51.492Z,16704.00
2023-07-14T08:26:51.501Z,21408.00
2023-07-14T08:27:51.495Z,29632.00
2023-07-14T08:28:51.461Z,42080.00
2023-07-14T08:29:51.454Z,36032.00
2023-07-14T08:30:51.440Z,24544.00
2023-07-14T08:31:51.518Z,18048.00
2023-07-14T08:32:51.457Z,11384.00
2023-07-14T08:33:51.418Z,18144.00
2023-07-14T08:34:51.489Z,16480.00
2023-07-14T08:35:51.384Z,16832.00
2023-07-14T08:36:51.388Z,30432.00
2023-07-14T08:37:51.359Z,35872.00
2023-07-14T08:38:51.367Z,34944.00
2023-07-14T08:39:51.344Z,56064.00
2023-07-14T08:40:51.339Z,28288.00
2023-07-14T08:41:51.354Z,38368.00
2023-07-14T08:42:51.312Z,50880.00
2023-07-14T08:43:51.310Z,25504.00
2023-07-14T08:44:51.292Z,46432.00
2023-07-14T08:45:51.304Z,51392.00
2023-07-14T08:46:51.283Z,39840.00
2023-07-14T08:47:51.356Z,41312.00
2023-07-14T08:48:51.242Z,44032.00
2023-07-14T08:49:51.258Z,35744.00
2023-07-14T08:50:51.269Z,21664.00
2023-07-14T08:51:51.279Z,24096.00
2023-07-14T08:52:51.205Z,43136.00
2023-07-14T08:53:51.242Z,48640.00
2023-07-14T08:54:51.191Z,38464.00
2023-07-14T08:55:51.188Z,30688.00
2023-07-14T08:56:51.160Z,22272.00
2023-07-14T08:57:51.146Z,15088.00
2023-07-14T08:58:51.151Z,12740.00
2023-07-14T08:59:51.130Z,11900.00
2023-07-14T09:00:51.173Z,11224.00
2023-07-14T09:01:51.164Z,10932.00
2023-07-14T09:02:51.127Z,11252.00
2023-07-14T09:03:51.822Z,11776.00
2023-07-14T09:04:51.185Z,11172.00
2023-07-14T09:05:51.080Z,11856.00
2023-07-14T09:06:51.065Z,13432.00
2023-07-14T09:07:51.041Z,11820.00
2023-07-14T09:08:51.031Z,13660.00
2023-07-14T09:09:51.042Z,32800.00
2023-07-14T09:10:51.005Z,19104.00
2023-07-14T09:11:51.032Z,16512.00
2023-07-14T09:12:50.989Z,19136.00
2023-07-14T09:13:50.980Z,16128.00
2023-07-14T09:14:50.960Z,16896.00
2023-07-14T09:15:50.994Z,19264.00
2023-07-14T09:16:51.009Z,16864.00
2023-07-14T09:17:51.089Z,12656.00
2023-07-14T09:18:50.959Z,11152.00
2023-07-14T09:19:50.909Z,10640.00
2023-07-14T09:20:50.909Z,10040.00
2023-07-14T09:21:50.949Z,9528.00
2023-07-14T09:22:50.953Z,9212.00
2023-07-14T09:23:50.876Z,9236.00
2023-07-14T09:24:50.876Z,9780.00
2023-07-14T09:25:50.841Z,8364.00
2023-07-14T09:26:50.912Z,7944.00
2023-07-14T09:27:50.839Z,7372.00
2023-07-14T09:28:50.815Z,7360.00
2023-07-14T09:29:50.815Z,7372.00
2023-07-14T09:30:50.895Z,7816.00
2023-07-14T09:31:50.916Z,8964.00
2023-07-14T09:32:50.877Z,9612.00
2023-07-14T09:33:50.756Z,9532.00
2023-07-14T09:34:50.748Z,8780.00
2023-07-14T09:35:50.748Z,9024.00
2023-07-14T09:36:50.734Z,10504.00
2023-07-14T09:37:50.708Z,11472.00
2023-07-14T09:38:50.819Z,7992.00
2023-07-14T09:39:50.691Z,5812.00
2023-07-14T09:40:50.685Z,4736.00
2023-07-14T09:41:50.729Z,4512.00
2023-07-14T09:42:50.662Z,4664.00
2023-07-14T09:43:50.655Z,4964.00
2023-07-14T09:44:50.651Z,5472.00
2023-07-14T09:45:50.642Z,5496.00
2023-07-14T09:46:50.706Z,5056.00
2023-07-14T09:47:50.646Z,5080.00
2023-07-14T09:48:50.603Z,5304.00
2023-07-14T09:49:50.606Z,5456.00
2023-07-14T09:50:50.569Z,5092.00
2023-07-14T09:51:50.604Z,5660.00
2023-07-14T09:52:50.565Z,18464.00
2023-07-14T09:53:51.938Z,7248.00
2023-07-14T09:54:50.550Z,6176.00
2023-07-14T09:55:50.515Z,4872.00
2023-07-14T09:56:50.513Z,3900.00
2023-07-14T09:58:00.958Z,3564.00
2023-07-14T09:58:51.477Z,3780.00
2023-07-14T09:59:50.466Z,3896.00
2023-07-14T10:00:50.583Z,3928.00
2023-07-14T10:01:50.467Z,4284.00
2023-07-14T10:02:50.479Z,4832.00
2023-07-14T10:03:50.451Z,5672.00
2023-07-14T10:04:50.429Z,10248.00
2023-07-14T10:05:50.402Z,26464.00
2023-07-14T10:06:50.391Z,11048.00
2023-07-14T10:07:50.396Z,8312.00
2023-07-14T10:08:50.391Z,7056.00
2023-07-14T10:09:50.361Z,32704.00
2023-07-14T10:10:50.367Z,11220.00
2023-07-14T10:11:51.103Z,10912.00
2023-07-14T10:12:50.346Z,39264.00
2023-07-14T10:13:50.315Z,26816.00
2023-07-14T10:14:50.301Z,11480.00
2023-07-14T10:15:50.290Z,9200.00
2023-07-14T10:16:50.308Z,8728.00
2023-07-14T10:17:50.333Z,35552.00
2023-07-14T10:18:50.281Z,11020.00
2023-07-14T10:19:50.246Z,7528.00
2023-07-14T10:20:50.255Z,6964.00
2023-07-14T10:21:50.242Z,10668.00
2023-07-14T10:22:50.263Z,43488.00
2023-07-14T10:23:50.216Z,15392.00
2023-07-14T10:24:50.201Z,13688.00
2023-07-14T10:25:50.183Z,14936.00
2023-07-14T10:26:50.216Z,10808.00
2023-07-14T10:27:50.165Z,10532.00
2023-07-14T10:28:50.148Z,24864.00
2023-07-14T10:29:50.158Z,30816.00
2023-07-14T10:30:50.156Z,27072.00
2023-07-14T10:31:50.189Z,17024.00
2023-07-14T10:32:50.118Z,14224.00
2023-07-14T10:33:50.129Z,12792.00
2023-07-14T10:34:50.097Z,9740.00
2023-07-14T10:35:50.077Z,10832.00
2023-07-14T10:36:50.079Z,8472.00
2023-07-14T10:37:50.052Z,6104.00
2023-07-14T10:38:50.053Z,5432.00
2023-07-14T10:39:50.036Z,6552.00
2023-07-14T10:40:50.028Z,7180.00
2023-07-14T10:41:50.109Z,9156.00
2023-07-14T10:42:50.052Z,11396.00
2023-07-14T10:43:50.007Z,12032.00
2023-07-14T10:44:49.991Z,12204.00
2023-07-14T10:45:49.978Z,12692.00
2023-07-14T10:46:49.997Z,13940.00
2023-07-14T10:47:50.012Z,15424.00
2023-07-14T10:48:49.930Z,14620.00
2023-07-14T10:49:49.930Z,17088.00
2023-07-14T10:50:49.909Z,13192.00
2023-07-14T10:51:49.976Z,12248.00
2023-07-14T10:52:49.899Z,9520.00
2023-07-14T10:53:49.898Z,8964.00
2023-07-14T10:54:49.894Z,9852.00
2023-07-14T10:55:49.882Z,10532.00
2023-07-14T10:56:49.882Z,10452.00
2023-07-14T10:57:49.836Z,8464.00
2023-07-14T10:58:49.856Z,8544.00
2023-07-14T10:59:49.821Z,8540.00
2023-07-14T11:00:49.798Z,8116.00
2023-07-14T11:01:49.842Z,8804.00
2023-07-14T11:02:49.876Z,17088.00
2023-07-14T11:03:49.833Z,19840.00
2023-07-14T11:04:49.875Z,10280.00
2023-07-14T11:05:49.754Z,9512.00
2023-07-14T11:06:49.739Z,16064.00
2023-07-14T11:07:49.736Z,15456.00
2023-07-14T11:08:49.714Z,8692.00
2023-07-14T11:09:49.725Z,7768.00
2023-07-14T11:10:49.699Z,6988.00
2023-07-14T11:11:49.706Z,7272.00
2023-07-14T11:12:51.835Z,15188.00
2023-07-14T11:13:49.697Z,8556.00
2023-07-14T11:14:49.725Z,74848.00
2023-07-14T11:15:49.649Z,78048.00
2023-07-14T11:16:49.682Z,86688.00
2023-07-14T11:17:49.701Z,92256.00
2023-07-14T11:18:49.643Z,92320.00
2023-07-14T11:19:49.623Z,94464.00
2023-07-14T11:20:49.608Z,89280.00
2023-07-14T11:21:49.609Z,30560.00
2023-07-14T11:22:49.614Z,70368.00
2023-07-14T11:23:49.597Z,37248.00
2023-07-14T11:24:49.540Z,10388.00
2023-07-14T11:25:49.544Z,7960.00
2023-07-14T11:26:49.743Z,6908.00
2023-07-14T11:27:49.505Z,6488.00
2023-07-14T11:28:51.206Z,6428.00
2023-07-14T11:29:49.484Z,6880.00
2023-07-14T11:30:49.503Z,6316.00
2023-07-14T11:31:49.547Z,4604.00
2023-07-14T11:32:49.478Z,4992.00
2023-07-14T11:33:49.458Z,5380.00
2023-07-14T11:34:49.454Z,6316.00
2023-07-14T11:35:49.419Z,6784.00
2023-07-14T11:36:49.427Z,4736.00
2023-07-14T11:37:49.413Z,5512.00
2023-07-14T11:38:49.398Z,4464.00
2023-07-14T11:39:49.531Z,6616.00
2023-07-14T11:40:49.371Z,6644.00
2023-07-14T11:41:49.369Z,5116.00
2023-07-14T11:42:49.355Z,6084.00
2023-07-14T11:43:49.334Z,4588.00
2023-07-14T11:44:49.325Z,5556.00
2023-07-14T11:45:49.382Z,6388.00
2023-07-14T11:46:49.358Z,5616.00
2023-07-14T11:47:49.341Z,4520.00
2023-07-14T11:48:49.276Z,4488.00
2023-07-14T11:49:49.277Z,5328.00
2023-07-14T11:50:49.272Z,5544.00
2023-07-14T11:51:49.253Z,5860.00
2023-07-14T11:52:49.257Z,7080.00
2023-07-14T11:53:49.233Z,6488.00
2023-07-14T11:54:49.220Z,6268.00
2023-07-14T11:55:49.216Z,5512.00
2023-07-14T11:56:52.257Z,5448.00
2023-07-14T11:57:49.205Z,5636.00
2023-07-14T11:58:49.176Z,6636.00
2023-07-14T11:59:49.166Z,7360.00
2023-07-14T12:00:49.147Z,7728.00
2023-07-14T12:01:49.207Z,6860.00
2023-07-14T12:02:52.721Z,6620.00
2023-07-14T12:03:49.218Z,6580.00
2023-07-14T12:04:49.146Z,7004.00
2023-07-14T12:05:49.109Z,6612.00
2023-07-14T12:06:49.112Z,7092.00
2023-07-14T12:07:49.074Z,8796.00
2023-07-14T12:08:49.063Z,9132.00
2023-07-14T12:09:49.065Z,9128.00
2023-07-14T12:10:49.077Z,7220.00
2023-07-14T12:11:49.048Z,7144.00
2023-07-14T12:12:49.055Z,6332.00
2023-07-14T12:13:49.009Z,7176.00
2023-07-14T12:14:48.998Z,8420.00
2023-07-14T12:15:49.024Z,8416.00
2023-07-14T12:16:49.120Z,8248.00
2023-07-14T12:17:49.142Z,7604.00
2023-07-14T12:18:48.973Z,7456.00
2023-07-14T12:19:48.944Z,6652.00
2023-07-14T12:20:48.938Z,6484.00
2023-07-14T12:21:48.942Z,6672.00
2023-07-14T12:22:49.018Z,6604.00